Lower Laposada, New Mexico
Current Conditions -  °F | °C
As of 9:53 AM on Friday 31 Oct 2014 (Local Time) from KLVS Reporting Station
Clear Clear  
Wind Chill: 41°   Ceiling: Unl
Heat Index: 47°   Visibility: 10mi
Dew Point: 26°   Wind: 14mph
Humidity: 44%   Direction: 190°S
Pressure: 30.48"   Gusts: NA
Location:  35.582°N, 105.558°W
Report Text: KLVS 311553Z AUTO 19012KT 10SM CLR 08/M03 A3048 RMK AO2 SLP274 T00831033
Loading
Personal Weather Stations






























Interactive Weather Map
Tropical Storm Tracking
New forecast layout! Learn more

10-Day Weather Forecast

Advertisements
Track Severe Weather on mobile